createdAt,value
2022-12-25T00:01:24.686Z,17.27
2022-12-25T00:03:52.652Z,19.17
2022-12-25T00:06:20.231Z,18.00
2022-12-25T00:08:47.256Z,19.40
2022-12-25T00:11:16.258Z,18.37
2022-12-25T00:13:44.223Z,18.50
2022-12-25T00:16:15.706Z,18.13
2022-12-25T00:18:42.396Z,18.83
2022-12-25T00:21:10.504Z,18.93
2022-12-25T00:23:37.188Z,18.33
2022-12-25T00:26:09.235Z,17.97
2022-12-25T00:28:36.504Z,17.77
2022-12-25T00:31:22.281Z,19.27
2022-12-25T00:33:50.325Z,22.17
2022-12-25T00:36:19.556Z,18.13
2022-12-25T00:38:47.186Z,14.27
2022-12-25T00:41:43.207Z,16.05
2022-12-25T00:44:12.553Z,15.60
2022-12-25T00:46:39.935Z,17.17
2022-12-25T00:49:07.146Z,17.70
2022-12-25T00:51:33.871Z,18.35
2022-12-25T00:54:00.790Z,19.10
2022-12-25T00:56:27.932Z,19.53
2022-12-25T00:58:55.814Z,19.63
2022-12-25T01:01:22.700Z,18.98
2022-12-25T01:03:49.548Z,18.55
2022-12-25T01:06:16.257Z,18.10
2022-12-25T01:09:02.079Z,17.53
2022-12-25T01:11:29.364Z,16.20
2022-12-25T01:13:56.340Z,17.77
2022-12-25T01:16:23.421Z,17.77
2022-12-25T01:18:50.673Z,16.33
2022-12-25T01:21:22.197Z,18.67
2022-12-25T01:23:50.465Z,20.33
2022-12-25T01:26:18.355Z,18.83
2022-12-25T01:28:45.198Z,18.25
2022-12-25T01:31:14.478Z,18.70
2022-12-25T01:33:42.756Z,17.53
2022-12-25T01:36:18.471Z,18.13
2022-12-25T01:38:46.277Z,18.48
2022-12-25T01:41:15.411Z,19.40
2022-12-25T01:44:28.639Z,18.53
2022-12-25T01:46:55.219Z,19.63
2022-12-25T01:49:24.670Z,19.17
2022-12-25T01:52:05.359Z,20.33
2022-12-25T01:54:36.324Z,20.13
2022-12-25T01:57:06.581Z,20.93
2022-12-25T01:59:33.433Z,19.73
2022-12-25T02:02:00.860Z,21.48
2022-12-25T02:04:39.604Z,21.60
2022-12-25T02:07:15.670Z,21.13
2022-12-25T02:09:43.114Z,21.10
2022-12-25T02:12:16.431Z,22.30
2022-12-25T02:14:43.217Z,22.73
2022-12-25T02:17:19.195Z,23.17
2022-12-25T02:20:18.890Z,22.93
2022-12-25T02:23:12.441Z,21.58
2022-12-25T02:26:14.304Z,23.48
2022-12-25T02:29:17.442Z,23.47
2022-12-25T02:31:59.428Z,22.30
2022-12-25T02:34:35.315Z,22.63
2022-12-25T02:37:10.244Z,25.03
2022-12-25T02:39:59.849Z,23.17
2022-12-25T02:42:56.258Z,22.52
2022-12-25T02:45:56.715Z,23.50
2022-12-25T02:48:44.313Z,23.55
2022-12-25T02:51:34.986Z,22.70
2022-12-25T02:54:25.630Z,21.77
2022-12-25T02:57:13.540Z,24.53
2022-12-25T03:00:03.104Z,23.40
2022-12-25T03:02:49.677Z,23.63
2022-12-25T03:05:40.390Z,24.43
2022-12-25T03:08:11.629Z,24.60
2022-12-25T03:11:00.363Z,25.27
2022-12-25T03:13:32.947Z,24.67
2022-12-25T03:16:18.385Z,26.15
2022-12-25T03:18:45.345Z,25.88
2022-12-25T03:21:30.630Z,26.87
2022-12-25T03:24:19.919Z,28.13
2022-12-25T03:26:55.703Z,27.75
2022-12-25T03:29:52.069Z,28.17
2022-12-25T03:32:26.538Z,27.08
2022-12-25T03:35:23.850Z,28.50
2022-12-25T03:38:37.094Z,27.25
2022-12-25T03:41:59.112Z,27.50
2022-12-25T03:45:18.841Z,26.63
2022-12-25T03:48:08.073Z,25.92
2022-12-25T03:51:03.819Z,28.05
2022-12-25T03:54:21.293Z,28.20
2022-12-25T03:57:07.451Z,28.25
2022-12-25T03:59:53.030Z,27.45
2022-12-25T04:02:38.512Z,29.87
2022-12-25T04:05:24.639Z,28.52
2022-12-25T04:08:09.730Z,28.80
2022-12-25T04:10:55.326Z,29.23
2022-12-25T04:13:40.279Z,28.48
2022-12-25T04:16:25.891Z,31.07
2022-12-25T04:19:11.211Z,31.33
2022-12-25T04:21:56.685Z,29.20
2022-12-25T04:24:42.179Z,31.27
2022-12-25T04:27:27.843Z,30.83
2022-12-25T04:30:13.082Z,31.87
2022-12-25T04:32:58.218Z,31.73
2022-12-25T04:35:57.014Z,31.60
2022-12-25T04:38:24.603Z,30.63
2022-12-25T04:40:51.491Z,32.30
2022-12-25T04:43:18.096Z,36.83
2022-12-25T04:45:52.653Z,33.37
2022-12-25T04:48:19.258Z,35.55
2022-12-25T04:50:45.874Z,36.37
2022-12-25T04:53:12.522Z,31.57
2022-12-25T04:55:39.341Z,31.43
2022-12-25T04:58:06.189Z,31.70
2022-12-25T05:00:32.776Z,32.37
2022-12-25T05:02:59.670Z,32.30
2022-12-25T05:05:26.565Z,30.93
2022-12-25T05:07:53.276Z,31.70
2022-12-25T05:10:19.876Z,32.57
2022-12-25T05:12:46.478Z,30.83
2022-12-25T05:15:13.186Z,33.37
2022-12-25T05:17:39.972Z,33.27
2022-12-25T05:20:07.798Z,30.97
2022-12-25T05:22:34.452Z,32.00
2022-12-25T05:25:01.129Z,30.55
2022-12-25T05:27:27.862Z,32.07
2022-12-25T05:29:54.510Z,31.10
2022-12-25T05:32:21.147Z,31.63
2022-12-25T05:34:47.749Z,31.37
2022-12-25T05:37:14.347Z,32.07
2022-12-25T05:39:40.976Z,32.93
2022-12-25T05:42:07.703Z,31.87
2022-12-25T05:44:34.371Z,29.63
2022-12-25T05:47:01.140Z,27.47
2022-12-25T05:49:28.016Z,29.53
2022-12-25T05:51:54.763Z,27.50
2022-12-25T05:54:21.403Z,25.87
2022-12-25T05:56:48.394Z,28.23
2022-12-25T05:59:15.167Z,24.00
2022-12-25T06:01:42.158Z,24.63
2022-12-25T06:04:12.805Z,24.30
2022-12-25T06:06:40.159Z,24.87
2022-12-25T06:09:06.763Z,25.35
2022-12-25T06:11:33.372Z,24.27
2022-12-25T06:14:00.042Z,24.43
2022-12-25T06:16:26.717Z,24.08
2022-12-25T06:18:53.615Z,23.17
2022-12-25T06:21:20.281Z,24.33
2022-12-25T06:23:47.173Z,23.27
2022-12-25T06:26:17.184Z,21.97
2022-12-25T06:28:44.222Z,24.08
2022-12-25T06:31:13.864Z,24.53
2022-12-25T06:33:42.063Z,22.25
2022-12-25T06:36:15.149Z,23.67
2022-12-25T06:38:42.708Z,22.38
2022-12-25T06:41:12.745Z,21.88
2022-12-25T06:43:39.420Z,22.40
2022-12-25T06:46:08.250Z,21.70
2022-12-25T06:48:35.745Z,23.00
2022-12-25T06:51:03.385Z,21.70
2022-12-25T06:53:37.126Z,22.35
2022-12-25T06:56:08.661Z,20.27
2022-12-25T06:58:35.259Z,21.05
2022-12-25T07:01:15.583Z,22.10
2022-12-25T07:03:44.429Z,21.48
2022-12-25T07:06:11.272Z,19.60
2022-12-25T07:08:38.048Z,20.08
2022-12-25T07:11:04.808Z,19.33
2022-12-25T07:13:31.389Z,19.17
2022-12-25T07:15:59.333Z,19.27
2022-12-25T07:18:26.836Z,19.95
2022-12-25T07:20:55.743Z,19.55
2022-12-25T07:23:22.877Z,19.27
2022-12-25T07:26:00.442Z,19.00
2022-12-25T07:28:27.935Z,18.75
2022-12-25T07:30:54.747Z,19.63
2022-12-25T07:33:21.440Z,19.27
2022-12-25T07:35:48.054Z,18.33
2022-12-25T07:38:14.639Z,18.65
2022-12-25T07:40:41.301Z,19.02
2022-12-25T07:43:13.508Z,17.88
2022-12-25T07:45:40.484Z,18.48
2022-12-25T07:48:16.319Z,17.65
2022-12-25T07:50:43.917Z,17.02
2022-12-25T07:53:10.620Z,17.58
2022-12-25T07:55:41.328Z,18.05
2022-12-25T07:58:08.150Z,17.95
2022-12-25T08:00:36.496Z,16.92
2022-12-25T08:03:04.467Z,17.48
2022-12-25T08:08:56.382Z,15.65
2022-12-25T08:12:08.803Z,16.08
2022-12-25T08:14:35.699Z,16.08
2022-12-25T08:17:33.478Z,15.05
2022-12-25T08:20:02.121Z,15.43
2022-12-25T08:22:30.476Z,15.52
2022-12-25T08:24:57.422Z,15.35
2022-12-25T08:27:36.370Z,16.02
2022-12-25T08:30:13.895Z,14.95
2022-12-25T08:32:42.309Z,17.75
2022-12-25T08:35:32.197Z,15.48
2022-12-25T08:37:59.232Z,15.00
2022-12-25T08:40:26.270Z,14.93
2022-12-25T08:42:55.497Z,15.68
2022-12-25T08:45:22.191Z,16.30
2022-12-25T08:47:53.404Z,16.33
2022-12-25T08:50:20.226Z,16.30
2022-12-25T08:52:47.022Z,17.92
2022-12-25T08:55:14.051Z,16.77
2022-12-25T08:57:41.079Z,15.20
2022-12-25T09:00:08.802Z,15.55
2022-12-25T09:02:35.973Z,15.68
2022-12-25T09:05:02.915Z,15.70
2022-12-25T09:07:29.804Z,15.60
2022-12-25T09:09:56.958Z,15.63
2022-12-25T09:12:23.723Z,14.88
2022-12-25T09:14:51.387Z,15.23
2022-12-25T09:17:18.226Z,14.95
2022-12-25T09:19:44.960Z,14.35
2022-12-25T09:22:11.616Z,14.68
2022-12-25T09:24:39.386Z,14.35
2022-12-25T09:27:06.045Z,14.57
2022-12-25T09:29:32.656Z,14.25
2022-12-25T09:31:59.216Z,14.40
2022-12-25T09:34:25.769Z,14.10
2022-12-25T09:36:52.746Z,14.27
2022-12-25T09:39:19.454Z,13.32
2022-12-25T09:42:01.545Z,12.75
2022-12-25T09:44:40.319Z,13.38
2022-12-25T09:47:12.519Z,13.65
2022-12-25T09:49:51.855Z,12.85
2022-12-25T09:52:20.377Z,13.57
2022-12-25T09:55:02.577Z,12.85
2022-12-25T09:57:29.278Z,12.55
2022-12-25T09:59:56.540Z,12.55
2022-12-25T10:02:55.961Z,13.05
2022-12-25T10:05:52.531Z,12.27
2022-12-25T10:08:57.545Z,12.82
2022-12-25T10:11:43.416Z,12.20
2022-12-25T10:17:57.882Z,13.52
2022-12-25T10:20:35.434Z,12.65
2022-12-25T10:23:08.010Z,12.45
2022-12-25T10:25:38.535Z,12.88
2022-12-25T10:28:15.813Z,13.00
2022-12-25T10:30:45.165Z,14.05
2022-12-25T10:33:17.060Z,13.00
2022-12-25T10:35:45.253Z,13.15
2022-12-25T10:38:18.363Z,12.90
2022-12-25T10:41:18.951Z,12.90
2022-12-25T10:43:50.639Z,12.85
2022-12-25T10:46:21.449Z,12.43
2022-12-25T10:48:53.338Z,11.88
2022-12-25T10:51:38.934Z,13.32
2022-12-25T10:54:28.710Z,11.65
2022-12-25T10:56:56.570Z,12.13
2022-12-25T10:59:24.887Z,11.82
2022-12-25T11:01:55.177Z,13.75
2022-12-25T11:04:25.821Z,11.70
2022-12-25T11:07:15.248Z,11.98
2022-12-25T11:09:54.643Z,12.73
2022-12-25T11:12:31.847Z,13.15
2022-12-25T11:15:26.522Z,12.93
2022-12-25T11:17:53.751Z,14.20
2022-12-25T11:20:40.056Z,12.93
2022-12-25T11:23:12.321Z,14.80
2022-12-25T11:25:39.044Z,12.75
2022-12-25T11:28:07.030Z,13.75
2022-12-25T11:30:34.497Z,12.65
2022-12-25T11:33:12.293Z,12.93
2022-12-25T11:35:47.847Z,12.45
2022-12-25T11:38:16.257Z,14.60
2022-12-25T11:40:50.807Z,12.45
2022-12-25T11:43:27.303Z,12.23
2022-12-25T11:45:59.927Z,12.13
2022-12-25T11:48:36.313Z,12.18
2022-12-25T11:51:05.818Z,11.65
2022-12-25T11:53:48.146Z,10.85
2022-12-25T11:56:23.834Z,10.85
2022-12-25T11:59:01.576Z,10.95
2022-12-25T12:01:36.957Z,10.50
2022-12-25T12:04:13.453Z,10.98
2022-12-25T12:07:00.343Z,10.70
2022-12-25T12:09:58.445Z,11.32
2022-12-25T12:12:48.890Z,10.35
2022-12-25T12:15:39.649Z,10.45
2022-12-25T12:18:32.020Z,9.85
2022-12-25T12:21:06.842Z,9.90
2022-12-25T12:23:55.000Z,9.27
2022-12-25T12:26:27.660Z,8.90
2022-12-25T12:29:01.181Z,9.70
2022-12-25T12:31:43.959Z,8.77
2022-12-25T12:34:29.616Z,8.63
2022-12-25T12:37:11.213Z,8.00
2022-12-25T12:39:44.557Z,8.65
2022-12-25T12:42:22.581Z,8.40
2022-12-25T12:44:50.507Z,9.32
2022-12-25T12:47:38.988Z,7.97
2022-12-25T12:50:07.190Z,7.65
2022-12-25T12:52:36.803Z,8.77
2022-12-25T12:55:14.538Z,8.93
2022-12-25T12:57:41.325Z,8.63
2022-12-25T13:00:21.194Z,7.90
2022-12-25T13:03:34.212Z,8.20
2022-12-25T13:06:32.163Z,8.40
2022-12-25T13:09:23.933Z,8.50
2022-12-25T13:11:50.798Z,8.20
2022-12-25T13:14:27.659Z,8.60
2022-12-25T13:16:54.856Z,8.57
2022-12-25T13:19:28.225Z,7.85
2022-12-25T13:22:07.368Z,7.95
2022-12-25T13:24:36.426Z,9.30
2022-12-25T13:27:22.253Z,8.07
2022-12-25T13:29:48.930Z,8.95
2022-12-25T13:32:25.128Z,8.52
2022-12-25T13:34:55.698Z,8.10
2022-12-25T13:37:25.231Z,8.52
2022-12-25T13:40:00.715Z,8.38
2022-12-25T13:42:37.695Z,9.32
2022-12-25T13:45:18.620Z,9.13
2022-12-25T13:48:15.063Z,8.27
2022-12-25T13:50:48.231Z,8.40
2022-12-25T13:53:17.118Z,8.90
2022-12-25T13:55:52.364Z,9.40
2022-12-25T13:58:28.255Z,8.98
2022-12-25T14:00:58.356Z,9.15
2022-12-25T14:03:40.542Z,8.65
2022-12-25T14:06:24.809Z,8.90
2022-12-25T14:08:53.500Z,9.02
2022-12-25T14:11:23.248Z,9.85
2022-12-25T14:13:52.884Z,9.23
2022-12-25T14:16:20.937Z,9.55
2022-12-25T14:18:52.493Z,9.13
2022-12-25T14:21:32.522Z,9.90
2022-12-25T14:23:59.765Z,9.48
2022-12-25T14:26:30.490Z,9.43
2022-12-25T14:29:01.374Z,8.75
2022-12-25T14:31:29.619Z,9.50
2022-12-25T14:33:58.071Z,10.00
2022-12-25T14:36:24.943Z,10.10
2022-12-25T14:39:03.590Z,10.02
2022-12-25T14:41:39.032Z,10.30
2022-12-25T14:44:26.476Z,10.25
2022-12-25T14:47:07.733Z,9.25
2022-12-25T14:49:39.751Z,9.55
2022-12-25T14:53:37.592Z,9.85
2022-12-25T14:56:09.598Z,10.27
2022-12-25T14:59:02.216Z,10.20
2022-12-25T15:01:40.852Z,10.23
2022-12-25T15:07:31.359Z,11.23
2022-12-25T15:10:18.797Z,10.98
2022-12-25T15:12:44.903Z,10.27
2022-12-25T15:15:11.714Z,9.63
2022-12-25T15:17:38.405Z,10.18
2022-12-25T15:20:06.454Z,9.20
2022-12-25T15:22:54.113Z,9.60
2022-12-25T15:25:21.835Z,10.02
2022-12-25T15:27:49.072Z,10.48
2022-12-25T15:30:16.167Z,10.52
2022-12-25T15:32:42.892Z,10.20
2022-12-25T15:35:16.438Z,10.90
2022-12-25T15:37:43.386Z,10.82
2022-12-25T15:40:13.600Z,10.85
2022-12-25T15:42:41.687Z,10.80
2022-12-25T15:45:28.587Z,10.63
2022-12-25T15:47:55.358Z,11.43
2022-12-25T15:50:22.424Z,11.18
2022-12-25T15:52:49.875Z,10.73
2022-12-25T15:55:17.062Z,12.13
2022-12-25T15:57:47.053Z,11.75
2022-12-25T16:00:18.147Z,11.40
2022-12-25T16:02:45.287Z,12.68
2022-12-25T16:05:12.537Z,11.75
2022-12-25T16:07:39.462Z,12.45
2022-12-25T16:10:11.918Z,11.82
2022-12-25T16:12:38.997Z,12.38
2022-12-25T16:15:06.374Z,12.07
2022-12-25T16:17:33.034Z,12.27
2022-12-25T16:19:59.861Z,12.07
2022-12-25T16:22:26.959Z,12.23
2022-12-25T16:24:53.859Z,12.60
2022-12-25T16:27:21.266Z,13.07
2022-12-25T16:29:48.064Z,12.63
2022-12-25T16:32:15.584Z,11.65
2022-12-25T16:34:42.348Z,12.25
2022-12-25T16:37:08.967Z,13.20
2022-12-25T16:39:35.571Z,13.57
2022-12-25T16:42:02.172Z,14.07
2022-12-25T16:44:28.746Z,13.23
2022-12-25T16:46:55.419Z,21.83
2022-12-25T16:49:22.095Z,16.70
2022-12-25T16:51:48.672Z,18.67
2022-12-25T16:54:15.317Z,10.35
2022-12-25T16:56:41.932Z,17.75
2022-12-25T16:59:08.966Z,12.50
2022-12-25T17:01:35.821Z,15.80
2022-12-25T17:04:04.496Z,15.30
2022-12-25T17:06:31.079Z,13.50
2022-12-25T17:08:59.708Z,17.45
2022-12-25T17:11:30.068Z,18.00
2022-12-25T17:13:59.709Z,19.70
2022-12-25T17:16:29.361Z,19.20
2022-12-25T17:19:01.489Z,20.33
2022-12-25T17:21:29.027Z,17.50
2022-12-25T17:24:01.632Z,16.08
2022-12-25T17:26:30.940Z,14.27
2022-12-25T17:28:58.640Z,19.45
2022-12-25T17:31:25.264Z,18.17
2022-12-25T17:33:54.249Z,18.10
2022-12-25T17:36:22.233Z,16.27
2022-12-25T17:38:49.665Z,24.33
2022-12-25T17:41:18.133Z,18.73
2022-12-25T17:43:45.883Z,21.17
2022-12-25T17:46:25.468Z,13.13
2022-12-25T17:48:54.168Z,13.77
2022-12-25T17:51:23.950Z,13.48
2022-12-25T17:53:53.636Z,17.27
2022-12-25T17:56:22.777Z,25.67
2022-12-25T17:59:00.596Z,15.50
2022-12-25T18:01:28.452Z,25.10
2022-12-25T18:03:55.473Z,22.20
2022-12-25T18:06:23.917Z,20.48
2022-12-25T18:08:50.561Z,16.83
2022-12-25T18:11:23.455Z,17.02
2022-12-25T18:13:52.206Z,15.85
2022-12-25T18:16:22.450Z,15.05
2022-12-25T18:18:52.346Z,20.63
2022-12-25T18:21:20.766Z,13.98
2022-12-25T18:23:47.652Z,14.18
2022-12-25T18:26:14.732Z,18.20
2022-12-25T18:28:48.373Z,17.02
2022-12-25T18:31:21.810Z,21.63
2022-12-25T18:33:49.268Z,18.15
2022-12-25T18:36:20.246Z,20.05
2022-12-25T18:38:48.414Z,17.85
2022-12-25T18:41:15.158Z,17.75
2022-12-25T18:43:54.095Z,23.52
2022-12-25T18:46:24.406Z,19.75
2022-12-25T18:48:52.009Z,23.92
2022-12-25T18:51:19.111Z,15.75
2022-12-25T18:53:46.306Z,19.05
2022-12-25T18:56:17.588Z,17.90
2022-12-25T18:58:45.658Z,23.85
2022-12-25T19:01:19.270Z,18.40
2022-12-25T19:03:46.373Z,18.92
2022-12-25T19:06:20.205Z,14.63
2022-12-25T19:08:47.250Z,19.55
2022-12-25T19:11:14.428Z,19.95
2022-12-25T19:13:41.122Z,18.63
2022-12-25T19:16:07.881Z,15.65
2022-12-25T19:18:34.700Z,19.35
2022-12-25T19:21:02.786Z,11.32
2022-12-25T19:23:29.557Z,16.23
2022-12-25T19:25:56.162Z,15.63
2022-12-25T19:28:24.871Z,15.73
2022-12-25T19:30:54.082Z,14.43
2022-12-25T19:33:21.666Z,18.60
2022-12-25T19:35:49.059Z,12.98
2022-12-25T19:38:15.936Z,11.23
2022-12-25T19:41:00.230Z,17.70
2022-12-25T19:43:33.874Z,13.20
2022-12-25T19:46:01.780Z,13.52
2022-12-25T19:48:30.150Z,11.63
2022-12-25T19:50:57.675Z,11.20
2022-12-25T19:53:25.270Z,13.77
2022-12-25T19:55:53.757Z,15.43
2022-12-25T19:58:21.900Z,12.82
2022-12-25T20:01:02.712Z,12.55
2022-12-25T20:03:29.504Z,13.07
2022-12-25T20:05:56.576Z,21.00
2022-12-25T20:08:23.516Z,15.35
2022-12-25T20:10:50.952Z,16.15
2022-12-25T20:13:18.592Z,12.50
2022-12-25T20:15:46.184Z,12.43
2022-12-25T20:18:13.270Z,14.55
2022-12-25T20:20:40.312Z,15.05
2022-12-25T20:23:07.300Z,17.80
2022-12-25T20:25:34.006Z,15.52
2022-12-25T20:28:00.777Z,14.13
2022-12-25T20:30:29.696Z,12.57
2022-12-25T20:32:57.841Z,17.90
2022-12-25T20:36:14.021Z,13.25
2022-12-25T20:38:58.211Z,14.93
2022-12-25T20:41:26.819Z,16.92
2022-12-25T20:43:54.441Z,12.40
2022-12-25T20:46:22.437Z,12.15
2022-12-25T20:48:49.215Z,13.20
2022-12-25T20:51:24.362Z,12.82
2022-12-25T20:53:51.323Z,11.27
2022-12-25T20:56:19.790Z,12.32
2022-12-25T20:58:46.886Z,11.60
2022-12-25T21:01:16.263Z,12.02
2022-12-25T21:03:44.495Z,13.52
2022-12-25T21:06:11.752Z,16.85
2022-12-25T21:08:38.800Z,13.57
2022-12-25T21:11:06.256Z,13.75
2022-12-25T21:13:42.382Z,14.93
2022-12-25T21:16:11.973Z,20.42
2022-12-25T21:18:39.241Z,14.15
2022-12-25T21:21:07.622Z,14.07
2022-12-25T21:23:36.617Z,13.68
2022-12-25T21:26:31.781Z,13.23
2022-12-25T21:29:00.925Z,13.68
2022-12-25T21:31:27.846Z,15.02
2022-12-25T21:33:55.686Z,17.33
2022-12-25T21:36:29.018Z,17.58
2022-12-25T21:39:01.240Z,17.25
2022-12-25T21:41:29.577Z,17.52
2022-12-25T21:43:56.877Z,16.48
2022-12-25T21:46:23.611Z,15.02
2022-12-25T21:48:51.240Z,17.70
2022-12-25T21:51:39.552Z,18.02
2022-12-25T21:54:08.008Z,18.75
2022-12-25T21:56:43.619Z,17.17
2022-12-25T21:59:14.655Z,19.95
2022-12-25T22:01:41.578Z,21.23
2022-12-25T22:04:09.556Z,19.55
2022-12-25T22:06:55.627Z,18.45
2022-12-25T22:09:22.993Z,17.75
2022-12-25T22:12:08.104Z,18.30
2022-12-25T22:14:52.959Z,18.60
2022-12-25T22:17:48.263Z,18.95
2022-12-25T22:20:20.276Z,19.23
2022-12-25T22:22:47.248Z,19.52
2022-12-25T22:25:15.062Z,17.73
2022-12-25T22:27:43.343Z,19.20
2022-12-25T22:30:23.511Z,18.73
2022-12-25T22:32:51.907Z,18.13
2022-12-25T22:35:19.696Z,18.77
2022-12-25T22:37:47.191Z,19.65
2022-12-25T22:40:16.863Z,16.90
2022-12-25T22:42:44.141Z,19.17
2022-12-25T22:45:11.714Z,21.00
2022-12-25T22:47:38.492Z,19.13
2022-12-25T22:50:06.151Z,19.83
2022-12-25T22:52:32.883Z,18.95
2022-12-25T22:54:59.517Z,20.38
2022-12-25T22:57:26.360Z,19.60
2022-12-25T22:59:53.192Z,21.73
2022-12-25T23:02:20.851Z,25.08
2022-12-25T23:04:47.681Z,23.00
2022-12-25T23:07:15.122Z,23.98
2022-12-25T23:09:43.022Z,19.88
2022-12-25T23:12:30.511Z,22.38
2022-12-25T23:14:57.822Z,18.90
2022-12-25T23:17:44.035Z,19.27
2022-12-25T23:20:37.087Z,18.63
2022-12-25T23:23:33.097Z,21.42
2022-12-25T23:26:09.178Z,16.88
2022-12-25T23:29:00.344Z,18.77
2022-12-25T23:31:36.448Z,19.05
2022-12-25T23:34:04.844Z,18.35
2022-12-25T23:36:32.293Z,21.17
2022-12-25T23:39:04.882Z,16.70
2022-12-25T23:41:41.314Z,19.52
2022-12-25T23:44:09.358Z,15.57
2022-12-25T23:46:39.427Z,16.13
2022-12-25T23:49:14.475Z,15.88
2022-12-25T23:51:43.608Z,20.08
2022-12-25T23:54:20.191Z,17.65
2022-12-25T23:56:47.710Z,20.75
2022-12-25T23:59:14.626Z,20.67
